Time;durP1;ratioP1;P1;durP2;ratioP2;P2;SDS_P1;SDS_P2;PMS_P1;PMS_P2;Temp;Humidity;BMP_temperature;BMP_pressure;BME280_temperature;BME280_humidity;BME280_pressure;Samples;Min_cycle;Max_cycle;Signal;HPM_P1;HPM_P2
2024/05/03 00:02:19;;;;;;;0.40;0.40;;;;;;;12.31;86.26;95332.63;5341957;26;20024;-63
2024/05/03 00:04:44;;;;;;;0.53;0.40;;;;;;;12.14;86.74;95342.88;5341093;26;20353;-63
2024/05/03 00:07:09;;;;;;;0.53;0.40;;;;;;;12.13;87.09;95335.22;5340527;26;20247;-63
2024/05/03 00:09:35;;;;;;;0.70;0.33;;;;;;;11.95;87.80;95340.19;5339413;26;20235;-63
2024/05/03 00:12:00;;;;;;;0.30;0.30;;;;;;;11.84;87.73;95351.94;5340145;26;20243;-63
2024/05/03 00:14:26;;;;;;;0.63;0.25;;;;;;;11.82;89.15;95348.78;5341748;26;20083;-62
2024/05/03 00:16:51;;;;;;;0.68;0.43;;;;;;;11.90;87.83;95355.31;5341065;26;20348;-63
2024/05/03 00:19:17;;;;;;;0.90;0.20;;;;;;;11.90;87.06;95350.81;5343073;26;20005;-62
2024/05/03 00:21:42;;;;;;;0.15;0.15;;;;;;;11.91;87.00;95365.59;5340194;26;20012;-63
2024/05/03 00:24:07;;;;;;;0.20;0.20;;;;;;;11.86;87.53;95370.16;5342056;26;20086;-63
2024/05/03 00:26:32;;;;;;;0.32;0.32;;;;;;;11.70;88.02;95369.50;5345995;26;20053;-62
2024/05/03 00:28:58;;;;;;;0.70;0.30;;;;;;;11.67;89.17;95368.19;5341068;26;20023;-62
2024/05/03 00:31:23;;;;;;;0.28;0.28;;;;;;;11.72;88.91;95375.28;5341544;26;20798;-62
2024/05/03 00:33:48;;;;;;;0.20;0.20;;;;;;;11.77;88.64;95375.22;5340745;26;20020;-63
2024/05/03 00:36:14;;;;;;;1.02;0.38;;;;;;;11.83;87.43;95366.22;5340786;26;20009;-62
2024/05/03 00:38:39;;;;;;;0.22;0.22;;;;;;;11.90;86.97;95373.81;5340938;26;20017;-63
2024/05/03 00:41:05;;;;;;;0.17;0.17;;;;;;;11.76;86.92;95371.03;5340849;26;20477;-63
2024/05/03 00:43:30;;;;;;;0.30;0.30;;;;;;;11.93;87.27;95371.41;5340737;26;20024;-63
2024/05/03 00:45:56;;;;;;;0.90;0.45;;;;;;;11.76;87.42;95382.38;5341779;26;20352;-63
2024/05/03 00:48:22;;;;;;;0.30;0.30;;;;;;;11.77;86.62;95380.53;5342747;26;20025;-63
2024/05/03 00:50:48;;;;;;;0.40;0.30;;;;;;;11.78;86.49;95379.44;5339396;26;20041;-62
2024/05/03 00:53:14;;;;;;;0.30;0.30;;;;;;;12.06;85.93;95370.72;5340333;26;20005;-63
2024/05/03 00:55:40;;;;;;;0.30;0.30;;;;;;;11.89;84.51;95380.97;5340894;26;20009;-63
2024/05/03 00:58:06;;;;;;;0.30;0.30;;;;;;;11.74;86.01;95376.59;5340819;26;20016;-63
2024/05/03 01:00:34;;;;;;;0.55;0.35;;;;;;;11.88;86.44;95383.88;5344678;26;20481;-62
2024/05/03 01:02:59;;;;;;;0.10;0.10;;;;;;;11.57;86.23;95387.59;5341011;26;20005;-62
2024/05/03 01:05:27;;;;;;;3.03;0.32;;;;;;;11.55;86.18;95387.09;5337028;26;20009;-63
2024/05/03 01:07:53;;;;;;;0.35;0.28;;;;;;;11.60;86.74;95388.88;5339939;26;20049;-62
2024/05/03 01:10:19;;;;;;;0.47;0.30;;;;;;;11.71;85.49;95389.56;5338928;26;20025;-63
2024/05/03 01:12:44;;;;;;;0.40;0.40;;;;;;;11.80;84.74;95393.19;5340653;26;20091;-62
2024/05/03 01:15:10;;;;;;;0.10;0.10;;;;;;;11.55;84.79;95400.28;5339982;26;20859;-63
2024/05/03 01:17:35;;;;;;;0.30;0.30;;;;;;;11.46;85.68;95388.75;5328426;26;20017;-63
2024/05/03 01:20:00;;;;;;;0.22;0.22;;;;;;;11.41;85.93;95396.72;5340179;26;20020;-63
2024/05/03 01:22:30;;;;;;;0.40;0.40;;;;;;;11.46;86.26;95411.75;5340394;26;20086;-63
2024/05/03 01:24:55;;;;;;;0.10;0.10;;;;;;;11.36;85.72;95420.53;5337871;26;20008;-62
2024/05/03 01:27:21;;;;;;;0.20;0.20;;;;;;;11.31;85.75;95420.56;5340161;26;20123;-62
2024/05/03 01:29:46;;;;;;;0.35;0.30;;;;;;;11.33;85.31;95423.72;5340584;26;20011;-62
2024/05/03 01:32:11;;;;;;;0.10;0.10;;;;;;;11.31;85.87;95417.94;5333554;26;20723;-62
2024/05/03 01:34:37;;;;;;;0.32;0.22;;;;;;;11.21;87.34;95432.00;5340950;26;20020;-62
2024/05/03 01:37:02;;;;;;;0.20;0.20;;;;;;;11.45;85.40;95434.72;5340342;26;20085;-62
2024/05/03 01:39:27;;;;;;;0.30;0.30;;;;;;;11.49;85.42;95425.16;5339518;26;20009;-62
2024/05/03 01:41:52;;;;;;;0.20;0.20;;;;;;;11.50;85.22;95432.03;5340048;26;20016;-62
2024/05/03 01:44:18;;;;;;;0.75;0.43;;;;;;;11.59;83.99;95429.56;5340930;26;20091;-63
2024/05/03 01:46:43;;;;;;;0.20;0.20;;;;;;;11.54;83.96;95440.97;5338536;26;20012;-63
2024/05/03 01:49:08;;;;;;;0.30;0.30;;;;;;;11.68;83.48;95432.41;5326841;26;20005;-62
2024/05/03 01:51:34;;;;;;;0.20;0.20;;;;;;;11.65;83.48;95446.19;5338637;26;20009;-62
2024/05/03 01:53:59;;;;;;;0.75;0.50;;;;;;;11.77;82.88;95436.03;5332486;26;20025;-62
2024/05/03 01:56:24;;;;;;;0.20;0.20;;;;;;;11.62;82.57;95441.44;5338804;26;20017;-62
2024/05/03 01:58:50;;;;;;;0.17;0.17;;;;;;;11.48;84.09;95436.78;5340215;26;20152;-62
2024/05/03 02:01:15;;;;;;;0.98;0.43;;;;;;;11.49;83.82;95427.81;5343929;26;20313;-62
2024/05/03 02:03:41;;;;;;;0.15;0.15;;;;;;;11.41;84.24;95417.84;5337888;26;20037;-62
2024/05/03 02:06:08;;;;;;;0.20;0.20;;;;;;;11.46;85.38;95419.66;5341104;26;20012;-63
2024/05/03 02:08:33;;;;;;;0.20;0.20;;;;;;;11.47;83.71;95410.66;5339176;26;20013;-62
2024/05/03 02:10:58;;;;;;;0.10;0.10;;;;;;;11.37;84.67;95411.53;5339862;26;20024;-62
2024/05/03 02:13:24;;;;;;;0.30;0.20;;;;;;;11.39;84.03;95408.59;5366344;26;20285;-63
2024/05/03 02:15:49;;;;;;;0.22;0.22;;;;;;;11.43;84.10;95414.91;5335278;26;20750;-62
2024/05/03 02:18:14;;;;;;;0.20;0.20;;;;;;;11.41;83.73;95425.00;5339570;26;20040;-62
2024/05/03 02:20:39;;;;;;;0.20;0.20;;;;;;;11.72;81.82;95423.66;5339759;26;20315;-63
2024/05/03 02:23:05;;;;;;;0.40;0.22;;;;;;;11.61;82.29;95439.88;5340267;26;20798;-62
2024/05/03 02:25:30;;;;;;;0.50;0.17;;;;;;;11.66;81.98;95439.84;5339760;26;20090;-63
2024/05/03 02:27:55;;;;;;;0.25;0.25;;;;;;;11.44;82.79;95443.69;5339264;26;20266;-63
2024/05/03 02:30:21;;;;;;;0.93;0.13;;;;;;;11.34;83.00;95441.13;5338630;26;20013;-63
2024/05/03 02:32:46;;;;;;;0.20;0.20;;;;;;;11.40;83.93;95447.16;5339665;26;20284;-63
2024/05/03 02:35:11;;;;;;;0.43;0.30;;;;;;;11.47;83.25;95437.09;5338665;26;20528;-63
2024/05/03 02:37:37;;;;;;;0.45;0.40;;;;;;;11.50;83.15;95437.31;5339909;26;20071;-63
2024/05/03 02:40:02;;;;;;;0.10;0.10;;;;;;;11.35;83.27;95424.22;5338932;26;20060;-62
2024/05/03 02:42:27;;;;;;;0.15;0.15;;;;;;;11.47;83.17;95427.31;5338954;26;20271;-62
2024/05/03 02:44:53;;;;;;;0.30;0.30;;;;;;;11.50;83.33;95432.03;5338852;26;20009;-62
2024/05/03 02:47:18;;;;;;;0.20;0.20;;;;;;;11.29;83.19;95430.59;5339314;26;20670;-62
2024/05/03 02:49:43;;;;;;;0.15;0.15;;;;;;;11.27;84.05;95425.63;5340745;26;20009;-62
2024/05/03 02:52:08;;;;;;;0.20;0.20;;;;;;;11.25;83.57;95430.38;5329636;26;20014;-63
2024/05/03 02:54:34;;;;;;;0.55;0.13;;;;;;;11.28;83.41;95423.75;5337702;26;20008;-63
2024/05/03 02:57:01;;;;;;;0.20;0.20;;;;;;;11.23;84.19;95423.78;5333286;26;20343;-62
2024/05/03 02:59:26;;;;;;;0.05;0.05;;;;;;;11.11;84.98;95424.13;5346015;26;20036;-63
2024/05/03 03:01:52;;;;;;;0.30;0.30;;;;;;;11.08;83.91;95426.53;5338420;26;20008;-63
2024/05/03 03:04:17;;;;;;;0.40;0.20;;;;;;;11.22;83.77;95435.44;5338885;26;20843;-63
2024/05/03 03:06:42;;;;;;;0.38;0.38;;;;;;;11.22;84.31;95449.41;5338984;26;20111;-62
2024/05/03 03:09:08;;;;;;;0.10;0.10;;;;;;;11.15;83.96;95463.97;5338291;26;20706;-62
2024/05/03 03:11:33;;;;;;;0.20;0.20;;;;;;;11.18;84.02;95469.50;5338469;26;20009;-62
2024/05/03 03:13:59;;;;;;;0.10;0.10;;;;;;;11.27;82.93;95475.78;5339564;26;20028;-62
2024/05/03 03:16:24;;;;;;;0.20;0.20;;;;;;;11.34;82.13;95493.16;5338637;26;20012;-62
2024/05/03 03:18:50;;;;;;;0.20;0.20;;;;;;;11.44;81.00;95491.25;5338977;26;20009;-63
2024/05/03 03:21:18;;;;;;;0.32;0.20;;;;;;;11.25;82.59;95500.88;5338715;26;20508;-63
2024/05/03 03:23:44;;;;;;;0.20;0.20;;;;;;;11.25;82.99;95509.59;5338633;26;20013;-63
2024/05/03 03:26:09;;;;;;;0.13;0.13;;;;;;;11.15;82.86;95508.88;5339366;26;20072;-62
2024/05/03 03:28:35;;;;;;;0.75;0.40;;;;;;;10.98;84.39;95510.03;5337729;26;20435;-63
2024/05/03 03:31:02;;;;;;;0.22;0.20;;;;;;;10.93;85.04;95512.69;5333215;26;20391;-63
2024/05/03 03:33:28;;;;;;;0.20;0.20;;;;;;;11.01;84.63;95519.22;5338269;26;20037;-63
2024/05/03 03:35:53;;;;;;;0.30;0.30;;;;;;;11.17;83.45;95527.88;5327652;26;20009;-63
2024/05/03 03:38:18;;;;;;;0.20;0.20;;;;;;;11.10;84.73;95522.09;5335466;26;20049;-62
2024/05/03 03:40:43;;;;;;;0.20;0.20;;;;;;;11.10;84.29;95532.66;5339329;26;20387;-63
2024/05/03 03:43:09;;;;;;;0.30;0.30;;;;;;;11.23;83.85;95524.13;5337523;26;20688;-63
2024/05/03 03:45:34;;;;;;;0.30;0.30;;;;;;;11.16;84.46;95528.91;5338599;26;20078;-63
2024/05/03 03:48:00;;;;;;;0.30;0.28;;;;;;;11.14;84.35;95531.84;5336183;26;20009;-63
2024/05/03 03:50:25;;;;;;;0.60;0.38;;;;;;;11.10;84.12;95530.00;5337626;26;20020;-62
2024/05/03 03:52:50;;;;;;;0.30;0.30;;;;;;;11.17;85.00;95527.88;5338242;26;20427;-62
2024/05/03 03:55:16;;;;;;;0.30;0.30;;;;;;;10.98;85.25;95523.22;5341827;26;20005;-62
2024/05/03 03:57:41;;;;;;;0.85;0.30;;;;;;;11.00;85.91;95529.00;5342244;26;20023;-62
2024/05/03 04:00:07;;;;;;;1.08;0.45;;;;;;;11.01;85.58;95525.28;5344092;26;20341;-63
2024/05/03 04:02:35;;;;;;;0.90;0.45;;;;;;;10.98;85.20;95528.50;5341639;26;20017;-63
2024/05/03 04:05:01;;;;;;;0.30;0.30;;;;;;;10.94;84.83;95516.91;5341469;26;20020;-62
2024/05/03 04:07:27;;;;;;;1.35;0.45;;;;;;;11.13;84.74;95532.91;5341876;26;20024;-62
2024/05/03 04:09:52;;;;;;;0.55;0.40;;;;;;;11.18;84.13;95524.16;5340440;26;20399;-63
2024/05/03 04:12:17;;;;;;;0.50;0.50;;;;;;;11.07;84.51;95536.66;5342746;26;20005;-63
2024/05/03 04:14:43;;;;;;;0.50;0.40;;;;;;;11.14;84.39;95538.97;5341818;26;20086;-63
2024/05/03 04:17:08;;;;;;;0.57;0.40;;;;;;;11.10;85.67;95543.22;5336669;26;20037;-62
2024/05/03 04:19:33;;;;;;;0.63;0.57;;;;;;;11.20;84.69;95554.50;5342126;26;20001;-63
2024/05/03 04:21:58;;;;;;;0.20;0.20;;;;;;;11.20;83.79;95545.81;5336339;26;20024;-62
2024/05/03 04:24:24;;;;;;;0.50;0.50;;;;;;;11.23;83.75;95547.91;5341391;26;20005;-62
2024/05/03 04:26:49;;;;;;;0.20;0.15;;;;;;;11.26;83.15;95552.66;5340946;26;20244;-63
2024/05/03 04:29:14;;;;;;;0.63;0.40;;;;;;;11.28;83.72;95566.38;5340997;26;20086;-63
2024/05/03 04:31:39;;;;;;;0.75;0.52;;;;;;;11.17;84.07;95570.13;5337954;26;20612;-63
2024/05/03 04:34:05;;;;;;;1.02;0.50;;;;;;;11.09;83.39;95562.75;5340671;26;20013;-63
2024/05/03 04:36:30;;;;;;;0.77;0.50;;;;;;;11.12;84.00;95567.50;5339456;26;20009;-63
2024/05/03 04:38:56;;;;;;;0.55;0.50;;;;;;;11.18;83.17;95561.13;5341080;26;20801;-63
2024/05/03 04:41:21;;;;;;;0.63;0.57;;;;;;;11.18;84.24;95564.56;5339192;26;20013;-61
2024/05/03 04:43:47;;;;;;;0.90;0.50;;;;;;;11.37;83.31;95575.31;5339607;26;20333;-62
2024/05/03 04:46:15;;;;;;;0.75;0.52;;;;;;;11.41;82.94;95584.25;5341345;26;20352;-62
2024/05/03 04:48:41;;;;;;;0.20;0.20;;;;;;;11.38;82.82;95582.16;5339707;26;20020;-62
2024/05/03 04:51:06;;;;;;;0.40;0.40;;;;;;;11.66;81.84;95590.47;5340300;26;20016;-62
2024/05/03 04:53:32;;;;;;;0.40;0.40;;;;;;;11.92;80.41;95599.03;5339769;26;20124;-62
2024/05/03 04:55:57;;;;;;;0.60;0.60;;;;;;;12.15;78.56;95600.19;5337821;26;20009;-61
2024/05/03 04:58:22;;;;;;;0.50;0.50;;;;;;;11.65;79.65;95612.66;5337510;26;20020;-62
2024/05/03 05:00:47;;;;;;;0.50;0.50;;;;;;;11.25;82.62;95612.59;5349867;26;20009;-61
2024/05/03 05:03:13;;;;;;;0.43;0.43;;;;;;;11.15;83.86;95625.81;5340131;26;20112;-61
2024/05/03 05:05:38;;;;;;;1.40;0.60;;;;;;;11.37;82.56;95617.56;5339871;26;20500;-61
2024/05/03 05:08:04;;;;;;;2.30;0.70;;;;;;;11.37;83.17;95622.06;5340925;26;20079;-62
2024/05/03 05:10:29;;;;;;;0.40;0.35;;;;;;;11.49;83.66;95615.38;5339411;26;20436;-62
2024/05/03 05:13:02;;;;;;;0.40;0.30;;;;;;;11.67;81.98;95631.66;5340129;26;20488;-62
2024/05/03 05:15:27;;;;;;;0.52;0.43;;;;;;;11.56;82.15;95636.22;5339012;26;21031;-62
2024/05/03 05:17:52;;;;;;;0.40;0.40;;;;;;;11.46;82.04;95637.06;5330728;26;20019;-62
2024/05/03 05:20:23;;;;;;;1.20;0.63;;;;;;;11.42;81.95;95643.16;5339905;26;20005;-61
2024/05/03 05:22:49;;;;;;;0.40;0.40;;;;;;;11.28;83.87;95645.59;5340346;26;20548;-62
2024/05/03 05:25:14;;;;;;;0.52;0.43;;;;;;;11.14;84.91;95644.59;5340002;26;20008;-60
2024/05/03 05:27:40;;;;;;;0.70;0.60;;;;;;;11.17;83.82;95636.16;5339393;26;20045;-61
2024/05/03 05:30:06;;;;;;;0.55;0.55;;;;;;;11.26;84.10;95637.94;5339824;26;20005;-61
2024/05/03 05:32:31;;;;;;;0.47;0.47;;;;;;;11.28;84.14;95645.59;5339438;26;20459;-61
2024/05/03 05:34:57;;;;;;;0.63;0.60;;;;;;;11.38;84.06;95656.13;5335503;26;20017;-62
2024/05/03 05:37:24;;;;;;;0.43;0.43;;;;;;;11.35;84.58;95656.66;5341025;26;20017;-62
2024/05/03 05:39:50;;;;;;;0.98;0.70;;;;;;;11.40;84.17;95648.72;5339598;26;20039;-61
2024/05/03 05:42:15;;;;;;;0.45;0.40;;;;;;;11.33;83.67;95664.06;5334483;26;20578;-62
2024/05/03 05:44:40;;;;;;;1.00;0.55;;;;;;;11.30;84.24;95659.31;5340415;26;20013;-62
2024/05/03 05:47:05;;;;;;;0.40;0.38;;;;;;;11.40;83.60;95669.03;5339782;26;20045;-61
2024/05/03 05:49:31;;;;;;;0.88;0.70;;;;;;;11.45;84.19;95664.56;5339745;26;20056;-61
2024/05/03 05:51:56;;;;;;;0.90;0.55;;;;;;;11.72;82.39;95666.00;5339083;26;20013;-62
2024/05/03 05:54:25;;;;;;;0.30;0.30;;;;;;;11.56;82.49;95666.09;5340790;26;20020;-61
2024/05/03 05:56:50;;;;;;;0.90;0.63;;;;;;;11.51;82.22;95667.97;5338774;26;20021;-62
2024/05/03 05:59:15;;;;;;;9.55;0.45;;;;;;;11.52;83.04;95677.47;5340148;26;20055;-61
2024/05/03 06:01:41;;;;;;;0.30;0.30;;;;;;;11.70;82.52;95684.78;5339215;26;20041;-62
2024/05/03 06:04:06;;;;;;;0.98;0.40;;;;;;;11.51;83.82;95681.16;5340254;26;20005;-61
2024/05/03 06:06:36;;;;;;;1.55;0.85;;;;;;;11.64;83.61;95685.06;5338678;26;20356;-62
2024/05/03 06:09:02;;;;;;;0.40;0.38;;;;;;;11.56;81.74;95689.06;5340414;26;20023;-62
2024/05/03 06:11:30;;;;;;;0.95;0.68;;;;;;;11.41;83.82;95692.56;5339536;26;20009;-62
2024/05/03 06:13:56;;;;;;;0.70;0.40;;;;;;;11.56;82.90;95700.44;5335100;26;20005;-62
2024/05/03 06:16:21;;;;;;;0.52;0.28;;;;;;;11.78;82.41;95707.19;5328894;26;20020;-61
2024/05/03 06:18:47;;;;;;;0.77;0.60;;;;;;;11.93;81.70;95709.00;5333352;26;20034;-62
2024/05/03 06:21:12;;;;;;;0.40;0.40;;;;;;;11.89;81.05;95707.97;5340619;26;20012;-62
2024/05/03 06:23:37;;;;;;;4.45;0.40;;;;;;;11.52;82.14;95702.03;5333738;26;20073;-61
2024/05/03 06:26:03;;;;;;;6.13;1.30;;;;;;;11.69;82.01;95707.00;5339085;26;20095;-61
2024/05/03 06:28:28;;;;;;;0.63;0.57;;;;;;;11.53;82.94;95708.88;5339682;26;20064;-60
2024/05/03 06:30:53;;;;;;;0.80;0.45;;;;;;;11.70;82.70;95710.41;5339810;26;20013;-61
2024/05/03 06:33:19;;;;;;;0.50;0.40;;;;;;;11.84;82.38;95722.03;5338211;26;20100;-61
2024/05/03 06:35:44;;;;;;;0.30;0.30;;;;;;;11.62;82.60;95710.97;5340095;26;20063;-61
2024/05/03 06:38:09;;;;;;;0.40;0.40;;;;;;;11.60;82.11;95713.13;5339560;26;20001;-61
2024/05/03 06:40:35;;;;;;;0.55;0.52;;;;;;;11.66;81.80;95715.44;5338905;26;20013;-62
2024/05/03 06:43:03;;;;;;;0.38;0.30;;;;;;;11.75;82.25;95720.97;5339982;26;20043;-62
2024/05/03 06:45:31;;;;;;;0.68;0.60;;;;;;;11.56;82.81;95721.56;5339661;26;20013;-61
2024/05/03 06:47:57;;;;;;;0.63;0.50;;;;;;;11.45;82.53;95722.69;5339148;26;20004;-60
2024/05/03 06:50:22;;;;;;;0.73;0.50;;;;;;;11.56;82.09;95721.56;5339408;26;20032;-61
2024/05/03 06:52:47;;;;;;;0.25;0.25;;;;;;;11.61;81.59;95712.03;5339701;26;20024;-62
2024/05/03 06:55:13;;;;;;;1.85;1.23;;;;;;;11.68;82.10;95721.25;5330879;26;20398;-61
2024/05/03 06:57:38;;;;;;;0.43;0.40;;;;;;;11.87;81.23;95729.38;5339978;26;20009;-61
2024/05/03 07:00:04;;;;;;;0.70;0.50;;;;;;;11.80;80.57;95736.81;5335809;26;20020;-61
2024/05/03 07:02:29;;;;;;;1.20;0.68;;;;;;;11.85;80.02;95734.16;5332476;26;20023;-61
2024/05/03 07:04:54;;;;;;;0.30;0.30;;;;;;;11.89;80.51;95735.22;5338971;26;20008;-61
2024/05/03 07:07:20;;;;;;;1.30;0.70;;;;;;;11.97;79.66;95741.75;5340147;26;20019;-61
2024/05/03 07:09:45;;;;;;;0.20;0.20;;;;;;;12.22;78.59;95733.72;5338771;26;20352;-60
2024/05/03 07:12:10;;;;;;;0.40;0.40;;;;;;;12.16;78.35;95744.56;5338975;26;20093;-61
2024/05/03 07:14:36;;;;;;;0.77;0.60;;;;;;;12.31;76.87;95737.34;5339397;26;20086;-61
2024/05/03 07:17:02;;;;;;;0.57;0.50;;;;;;;12.54;77.18;95746.44;5337757;26;20052;-60
2024/05/03 07:19:28;;;;;;;0.50;0.50;;;;;;;12.50;76.89;95744.63;5340376;26;20033;-61
2024/05/03 07:21:53;;;;;;;0.50;0.30;;;;;;;12.36;78.79;95748.94;5332747;26;20005;-60
2024/05/03 07:24:18;;;;;;;1.27;0.40;;;;;;;12.37;78.24;95743.41;5339383;26;20028;-61
2024/05/03 07:26:44;;;;;;;5.78;1.05;;;;;;;12.24;78.37;95757.22;5338796;26;20008;-61
2024/05/03 07:29:10;;;;;;;0.80;0.60;;;;;;;12.13;78.30;95750.44;5341771;26;20087;-61
2024/05/03 07:31:36;;;;;;;0.20;0.20;;;;;;;12.24;78.99;95759.88;5341278;26;20004;-61
2024/05/03 07:34:02;;;;;;;0.28;0.28;;;;;;;12.37;78.20;95756.63;5343004;26;20013;-61
2024/05/03 07:36:28;;;;;;;0.32;0.30;;;;;;;12.41;76.64;95762.13;5342765;26;20019;-61
2024/05/03 07:38:56;;;;;;;0.40;0.40;;;;;;;12.45;78.55;95763.19;5344192;26;20008;-60
2024/05/03 07:41:23;;;;;;;0.20;0.20;;;;;;;12.48;79.20;95768.72;5342493;26;20016;-61
2024/05/03 07:43:48;;;;;;;0.47;0.47;;;;;;;12.37;78.38;95780.44;5342102;26;20094;-61
2024/05/03 07:46:14;;;;;;;0.30;0.30;;;;;;;12.31;78.01;95782.31;5343240;26;20392;-60
2024/05/03 07:48:39;;;;;;;0.45;0.40;;;;;;;12.18;80.58;95790.84;5339940;26;20013;-60
2024/05/03 07:51:06;;;;;;;0.38;0.30;;;;;;;12.05;79.39;95804.66;5342392;26;20082;-61
2024/05/03 07:53:33;;;;;;;3.33;0.38;;;;;;;12.38;79.82;95797.09;5341852;26;20005;-62
2024/05/03 07:55:59;;;;;;;0.38;0.38;;;;;;;12.54;80.36;95788.78;5342786;26;20008;-61
2024/05/03 07:58:24;;;;;;;0.20;0.20;;;;;;;12.49;77.30;95794.09;5341295;26;20015;-60
2024/05/03 08:00:49;;;;;;;0.30;0.30;;;;;;;12.65;76.67;95799.28;5350834;26;20005;-60
2024/05/03 08:03:14;;;;;;;1.73;0.38;;;;;;;12.86;75.30;95800.75;5339885;26;20013;-61
2024/05/03 08:05:41;;;;;;;1.20;0.70;;;;;;;12.96;74.75;95805.19;5340426;26;20005;-60
2024/05/03 08:08:06;;;;;;;4.40;0.95;;;;;;;13.04;74.98;95804.59;5338098;26;20782;-61
2024/05/03 08:10:31;;;;;;;6.50;0.52;;;;;;;13.09;74.03;95809.84;5339533;26;20001;-60
2024/05/03 08:12:57;;;;;;;0.30;0.30;;;;;;;12.95;75.37;95814.97;5340128;26;20009;-62
2024/05/03 08:15:22;;;;;;;0.20;0.20;;;;;;;13.28;74.07;95812.63;5339924;26;20087;-61
2024/05/03 08:17:50;;;;;;;0.30;0.30;;;;;;;13.03;73.91;95821.53;5340558;26;20071;-61
2024/05/03 08:20:15;;;;;;;0.38;0.38;;;;;;;12.97;74.64;95815.47;5338777;26;20015;-61
2024/05/03 08:22:42;;;;;;;0.20;0.20;;;;;;;12.79;75.26;95810.84;5340343;26;20572;-60
2024/05/03 08:25:08;;;;;;;0.75;0.40;;;;;;;12.72;75.09;95816.47;5338891;26;20575;-61
2024/05/03 08:27:33;;;;;;;0.45;0.28;;;;;;;12.35;76.07;95826.75;5339881;26;20009;-61
2024/05/03 08:29:59;;;;;;;0.20;0.20;;;;;;;12.09;78.14;95818.16;5338795;26;20035;-60
2024/05/03 08:32:24;;;;;;;0.32;0.32;;;;;;;12.04;79.62;95827.69;5340196;26;20012;-61
2024/05/03 08:34:49;;;;;;;0.63;0.40;;;;;;;11.97;80.54;95835.09;5338793;26;20009;-62
2024/05/03 08:37:15;;;;;;;0.43;0.30;;;;;;;11.84;82.18;95830.41;5337970;26;20083;-61
2024/05/03 08:39:41;;;;;;;0.40;0.40;;;;;;;11.75;83.26;95829.34;5339451;26;20032;-60
2024/05/03 08:42:19;;;;;;;0.20;0.20;;;;;;;11.85;83.20;95831.19;5338386;26;20325;-61
2024/05/03 08:44:53;;;;;;;0.35;0.35;;;;;;;11.88;80.53;95836.75;5335877;26;20005;-61
2024/05/03 08:47:22;;;;;;;0.50;0.50;;;;;;;11.59;83.75;95820.63;5337582;26;20033;-60
2024/05/03 08:50:02;;;;;;;1.95;0.73;;;;;;;11.49;84.81;95821.44;5334319;26;20009;-62
2024/05/03 08:52:31;;;;;;;0.40;0.40;;;;;;;11.65;83.35;95832.78;5329552;26;20009;-61
2024/05/03 08:55:00;;;;;;;0.30;0.30;;;;;;;12.02;82.75;95835.06;5334671;26;20449;-62
2024/05/03 08:57:26;;;;;;;0.60;0.50;;;;;;;12.08;82.71;95830.56;5333441;26;20341;-62
2024/05/03 08:59:52;;;;;;;1.70;0.50;;;;;;;12.16;82.71;95830.00;5333070;26;20027;-61
2024/05/03 09:02:17;;;;;;;0.30;0.30;;;;;;;12.25;80.40;95827.59;5336496;26;20017;-61
2024/05/03 09:04:44;;;;;;;1.27;0.38;;;;;;;12.40;82.36;95830.16;5338126;26;20094;-60
2024/05/03 09:07:11;;;;;;;1.00;0.20;;;;;;;12.59;79.35;95838.25;5337846;26;20017;-61
2024/05/03 09:09:46;;;;;;;1.45;0.35;;;;;;;12.22;81.41;95846.66;5338101;26;20016;-60
2024/05/03 09:12:11;;;;;;;0.32;0.32;;;;;;;12.33;81.73;95850.84;5338007;26;20488;-61
2024/05/03 09:14:38;;;;;;;5.18;0.47;;;;;;;12.44;82.85;95852.34;5333880;26;20024;-63
2024/05/03 09:17:03;;;;;;;0.20;0.20;;;;;;;12.61;82.81;95859.16;5331779;26;20087;-62
2024/05/03 09:19:29;;;;;;;0.20;0.20;;;;;;;12.97;81.98;95849.91;5339038;26;20020;-62
2024/05/03 09:21:54;;;;;;;0.20;0.20;;;;;;;12.81;80.69;95856.38;5331976;26;20010;-62
2024/05/03 09:24:19;;;;;;;0.73;0.40;;;;;;;12.82;80.92;95857.97;5330207;26;20094;-61
2024/05/03 09:26:45;;;;;;;3.55;0.50;;;;;;;12.75;81.84;95862.78;5333508;26;20012;-60
2024/05/03 09:29:16;;;;;;;0.30;0.30;;;;;;;12.76;78.73;95869.66;5336767;26;20341;-62
2024/05/03 09:31:42;;;;;;;0.50;0.50;;;;;;;12.66;79.08;95864.44;5334685;26;20015;-62
2024/05/03 09:34:08;;;;;;;1.05;0.50;;;;;;;12.62;82.28;95863.38;5331479;26;20036;-62
2024/05/03 09:36:33;;;;;;;0.57;0.40;;;;;;;12.43;82.12;95866.66;5334817;26;20060;-62
2024/05/03 09:38:59;;;;;;;0.40;0.40;;;;;;;12.29;85.50;95865.66;5334720;26;20053;-61
2024/05/03 09:41:28;;;;;;;0.20;0.20;;;;;;;11.84;90.59;95859.47;5307907;26;20004;-61
2024/05/03 09:43:53;;;;;;;0.30;0.30;;;;;;;11.59;92.41;95868.19;5337112;26;20690;-62
2024/05/03 09:46:20;;;;;;;0.20;0.20;;;;;;;11.49;93.65;95863.72;5338551;26;20044;-61
2024/05/03 09:48:47;;;;;;;0.20;0.20;;;;;;;11.53;93.78;95864.78;5336730;26;20013;-61
2024/05/03 09:51:15;;;;;;;0.47;0.20;;;;;;;11.63;90.58;95873.75;5335849;26;20248;-63
2024/05/03 09:53:42;;;;;;;0.20;0.20;;;;;;;11.83;86.29;95876.38;5329389;26;20480;-61
2024/05/03 09:56:09;;;;;;;0.20;0.20;;;;;;;11.88;87.12;95881.69;5334529;26;20489;-62
2024/05/03 09:58:59;;;;;;;0.32;0.32;;;;;;;11.96;84.07;95881.09;5330874;26;20019;-61
2024/05/03 10:01:26;;;;;;;0.10;0.10;;;;;;;12.16;81.80;95871.53;5330180;26;20341;-61
2024/05/03 10:03:52;;;;;;;0.17;0.17;;;;;;;12.48;82.47;95881.72;5331811;26;20005;-62
2024/05/03 10:06:19;;;;;;;0.13;0.13;;;;;;;12.55;80.02;95875.06;5336045;26;20009;-61
2024/05/03 10:08:45;;;;;;;0.30;0.30;;;;;;;12.64;80.61;95880.56;5328734;26;20565;-65
2024/05/03 10:11:16;;;;;;;0.25;0.25;;;;;;;12.71;79.20;95882.94;5336036;26;20081;-62
2024/05/03 10:13:43;;;;;;;0.10;0.10;;;;;;;12.70;80.07;95889.28;5337474;26;20077;-61
2024/05/03 10:16:09;;;;;;;0.50;0.50;;;;;;;12.83;80.03;95884.16;5337132;26;20020;-61
2024/05/03 10:18:36;;;;;;;1.02;0.30;;;;;;;12.89;75.17;95879.66;5333370;26;20460;-61
2024/05/03 10:21:03;;;;;;;1.85;0.40;;;;;;;12.53;78.66;95877.19;5334362;26;20013;-62
2024/05/03 10:23:29;;;;;;;0.30;0.30;;;;;;;12.70;79.90;95878.72;5324258;26;20056;-62
2024/05/03 10:25:54;;;;;;;0.20;0.20;;;;;;;12.40;77.15;95872.47;5336071;26;20013;-62
2024/05/03 10:28:19;;;;;;;1.15;0.40;;;;;;;12.43;77.86;95865.88;5325405;26;20005;-62
2024/05/03 10:30:49;;;;;;;0.20;0.20;;;;;;;12.52;75.90;95872.19;5334359;26;20016;-62
2024/05/03 10:33:17;;;;;;;0.28;0.22;;;;;;;12.70;73.50;95876.84;5336354;26;20064;-62
2024/05/03 10:35:47;;;;;;;0.65;0.43;;;;;;;13.06;72.23;95885.34;5329271;26;20009;-61
2024/05/03 10:38:13;;;;;;;1.17;0.30;;;;;;;13.04;72.01;95879.53;5329187;26;20009;-61
2024/05/03 10:40:39;;;;;;;0.40;0.30;;;;;;;12.72;70.95;95884.50;5331667;26;20016;-61
2024/05/03 10:43:05;;;;;;;0.30;0.30;;;;;;;12.47;72.88;95891.50;5336418;26;20675;-62
2024/05/03 10:45:32;;;;;;;0.30;0.30;;;;;;;12.58;72.98;95885.09;5331816;26;20009;-61
2024/05/03 10:47:58;;;;;;;0.40;0.40;;;;;;;12.53;73.18;95879.03;5335549;26;20333;-62
2024/05/03 10:50:25;;;;;;;0.60;0.55;;;;;;;12.47;74.04;95883.56;5335926;26;20017;-62
2024/05/03 10:52:53;;;;;;;0.40;0.40;;;;;;;12.29;74.17;95894.75;5336934;26;20741;-61
2024/05/03 10:55:19;;;;;;;0.40;0.40;;;;;;;12.25;75.46;95889.22;5336064;26;20015;-62
2024/05/03 10:57:44;;;;;;;1.05;0.40;;;;;;;12.12;75.82;95902.22;5332504;26;20013;-61
2024/05/03 11:00:11;;;;;;;0.20;0.20;;;;;;;12.35;77.03;95906.13;5327647;26;20051;-62
2024/05/03 11:02:36;;;;;;;0.40;0.40;;;;;;;12.26;76.49;95919.91;5340046;26;20009;-61
2024/05/03 11:05:03;;;;;;;1.27;0.43;;;;;;;12.18;77.02;95907.25;5338629;26;20005;-63
2024/05/03 11:07:28;;;;;;;0.52;0.50;;;;;;;12.31;75.86;95911.97;5339823;26;20009;-63
2024/05/03 11:09:57;;;;;;;0.30;0.30;;;;;;;12.41;75.95;95919.06;5336043;26;20005;-61
2024/05/03 11:12:23;;;;;;;0.73;0.45;;;;;;;12.38;75.06;95916.94;5339444;26;20013;-62
2024/05/03 11:14:49;;;;;;;0.32;0.32;;;;;;;12.46;75.63;95913.75;5339184;26;20024;-62
2024/05/03 11:17:14;;;;;;;0.30;0.30;;;;;;;12.19;75.34;95924.69;5337144;26;20467;-62
2024/05/03 11:19:40;;;;;;;0.50;0.40;;;;;;;12.04;74.92;95927.38;5339595;26;20031;-61
2024/05/03 11:22:05;;;;;;;0.28;0.28;;;;;;;12.13;73.61;95931.06;5331577;26;20016;-61
2024/05/03 11:24:30;;;;;;;0.30;0.30;;;;;;;12.51;73.98;95929.59;5328206;26;20005;-61
2024/05/03 11:27:03;;;;;;;0.30;0.30;;;;;;;12.50;72.47;95932.50;5331199;26;20009;-61
2024/05/03 11:29:30;;;;;;;0.40;0.40;;;;;;;12.37;72.40;95936.53;5339183;26;20005;-61